createdAt,value
2022-12-28T00:02:18.704Z,100513.94
2022-12-28T00:04:46.851Z,100506.09
2022-12-28T00:07:16.763Z,100506.13
2022-12-28T00:09:44.772Z,100495.75
2022-12-28T00:12:12.970Z,100496.56
2022-12-28T00:14:41.169Z,100492.25
2022-12-28T00:17:09.286Z,100479.22
2022-12-28T00:19:37.621Z,100480.09
2022-12-28T00:22:05.766Z,100464.31
2022-12-28T00:24:36.089Z,100484.34
2022-12-28T00:27:04.285Z,100482.59
2022-12-28T00:29:32.778Z,100474.75
2022-12-28T00:32:01.296Z,100467.81
2022-12-28T00:34:29.527Z,100467.81
2022-12-28T00:37:08.748Z,100461.75
2022-12-28T00:39:43.449Z,100461.66
2022-12-28T00:42:12.069Z,100459.97
2022-12-28T00:44:40.401Z,100463.47
2022-12-28T00:47:08.822Z,100456.53
2022-12-28T00:49:37.089Z,100451.22
2022-12-28T00:52:05.515Z,100442.66
2022-12-28T00:54:33.728Z,100426.09
2022-12-28T00:57:03.590Z,100428.69
2022-12-28T00:59:31.739Z,100416.56
2022-12-28T01:01:59.952Z,100416.56
2022-12-28T01:04:28.570Z,100426.03
2022-12-28T01:06:56.698Z,100418.22
2022-12-28T01:09:24.913Z,100413.00
2022-12-28T01:11:53.288Z,100406.06
2022-12-28T01:14:22.690Z,100413.00
2022-12-28T01:16:50.909Z,100397.34
2022-12-28T01:19:23.049Z,100394.69
2022-12-28T01:21:52.535Z,100409.47
2022-12-28T01:24:20.973Z,100409.50
2022-12-28T01:26:49.078Z,100400.84
2022-12-28T01:29:17.232Z,100393.81
2022-12-28T01:31:47.055Z,100397.22
2022-12-28T01:34:15.493Z,100386.78
2022-12-28T01:36:43.561Z,100379.84
2022-12-28T01:39:12.178Z,100390.28
2022-12-28T01:41:42.468Z,100384.22
2022-12-28T01:44:44.654Z,100376.34
2022-12-28T01:47:20.972Z,100381.53
2022-12-28T01:49:55.442Z,100376.19
2022-12-28T01:52:31.051Z,100380.63
2022-12-28T01:55:05.141Z,100374.47
2022-12-28T01:57:37.645Z,100381.25
2022-12-28T02:00:11.209Z,100370.78
2022-12-28T02:02:43.412Z,100370.63
2022-12-28T02:05:11.779Z,100362.06
2022-12-28T02:07:47.908Z,100360.25
2022-12-28T02:10:41.052Z,100358.47
2022-12-28T02:13:06.834Z,100346.25
2022-12-28T02:15:35.315Z,100336.66
2022-12-28T02:18:05.165Z,100324.41
2022-12-28T02:20:43.812Z,100330.47
2022-12-28T02:23:28.938Z,100320.00
2022-12-28T02:26:31.785Z,100319.88
2022-12-28T02:29:20.616Z,100311.28
2022-12-28T02:31:56.509Z,100300.91
2022-12-28T02:34:29.580Z,100281.75
2022-12-28T02:37:02.864Z,100294.75
2022-12-28T02:39:36.854Z,100295.56
2022-12-28T02:42:06.499Z,100280.84
2022-12-28T02:44:54.224Z,100273.00
2022-12-28T02:47:40.533Z,100273.03
2022-12-28T02:50:12.600Z,100273.03
2022-12-28T02:53:06.511Z,100261.66
2022-12-28T02:56:06.757Z,100251.97
2022-12-28T02:59:03.328Z,100245.09
2022-12-28T03:02:04.106Z,100244.06
2022-12-28T03:04:46.153Z,100233.69
2022-12-28T03:07:43.369Z,100227.56
2022-12-28T03:10:16.750Z,100217.19
2022-12-28T03:12:51.724Z,100211.94
2022-12-28T03:15:30.760Z,100210.16
2022-12-28T03:18:24.662Z,100197.94
2022-12-28T03:21:13.009Z,100191.84
2022-12-28T03:24:00.588Z,100179.66
2022-12-28T03:26:49.248Z,100174.41
2022-12-28T03:29:37.226Z,100173.53
2022-12-28T03:32:06.165Z,100168.28
2022-12-28T03:34:36.368Z,100145.50
2022-12-28T03:37:13.240Z,100155.13
2022-12-28T03:39:46.532Z,100145.47
2022-12-28T03:42:35.773Z,100136.91
2022-12-28T03:45:11.544Z,100126.50
2022-12-28T03:47:42.973Z,100126.44
2022-12-28T03:50:13.638Z,100121.28
2022-12-28T03:52:42.035Z,100099.59
2022-12-28T03:55:11.964Z,100114.38
2022-12-28T03:57:40.495Z,100113.38
2022-12-28T04:00:10.979Z,100094.19
2022-12-28T04:02:40.546Z,100095.06
2022-12-28T04:05:09.667Z,100089.88
2022-12-28T04:07:39.124Z,100089.88
2022-12-28T04:10:07.844Z,100082.88
2022-12-28T04:12:36.075Z,100075.84
2022-12-28T04:15:04.305Z,100072.38
2022-12-28T04:17:32.403Z,100042.72
2022-12-28T04:20:00.816Z,100061.94
2022-12-28T04:22:28.997Z,100055.00
2022-12-28T04:24:58.840Z,100050.59
2022-12-28T04:27:27.069Z,100046.22
2022-12-28T04:29:55.505Z,100043.66
2022-12-28T04:32:23.608Z,100034.16
2022-12-28T04:34:52.017Z,100037.66
2022-12-28T04:37:20.200Z,100025.47
2022-12-28T04:39:55.979Z,100027.16
2022-12-28T04:42:27.172Z,100024.50
2022-12-28T04:44:55.616Z,100015.03
2022-12-28T04:47:23.731Z,100011.56
2022-12-28T04:49:51.956Z,100004.59
2022-12-28T04:52:22.433Z,99997.66
2022-12-28T04:54:50.680Z,99987.22
2022-12-28T04:57:18.853Z,99986.34
2022-12-28T04:59:48.491Z,99973.25
2022-12-28T05:02:17.005Z,99971.41
2022-12-28T05:04:45.340Z,99964.47
2022-12-28T05:07:13.446Z,99938.31
2022-12-28T05:09:41.578Z,99957.53
2022-12-28T05:12:09.816Z,99938.38
2022-12-28T05:14:37.953Z,99938.38
2022-12-28T05:17:07.530Z,99935.69
2022-12-28T05:19:35.716Z,99926.19
2022-12-28T05:22:03.755Z,99919.13
2022-12-28T05:24:31.975Z,99914.84
2022-12-28T05:27:00.272Z,99901.88
2022-12-28T05:29:28.388Z,99894.94
2022-12-28T05:31:56.656Z,99901.81
2022-12-28T05:34:26.279Z,99894.91
2022-12-28T05:36:54.745Z,99882.78
2022-12-28T05:39:22.959Z,99884.63
2022-12-28T05:41:51.356Z,99876.81
2022-12-28T05:44:19.619Z,99874.16
2022-12-28T05:46:48.126Z,99860.16
2022-12-28T05:49:16.416Z,99858.47
2022-12-28T05:51:45.879Z,99856.78
2022-12-28T05:54:13.970Z,99850.75
2022-12-28T05:56:42.276Z,99835.09
2022-12-28T05:59:10.445Z,99838.59
2022-12-28T06:01:40.312Z,99830.81
2022-12-28T06:04:10.331Z,99832.53
2022-12-28T06:06:38.572Z,99828.94
2022-12-28T06:09:08.205Z,99834.16
2022-12-28T06:11:37.150Z,99820.28
2022-12-28T06:14:06.101Z,99809.88
2022-12-28T06:16:36.660Z,99808.16
2022-12-28T06:19:09.165Z,99802.06
2022-12-28T06:21:39.815Z,99778.66
2022-12-28T06:24:10.946Z,99783.81
2022-12-28T06:26:42.006Z,99778.63
2022-12-28T06:29:11.348Z,99783.00
2022-12-28T06:31:41.922Z,99776.94
2022-12-28T06:34:11.345Z,99780.41
2022-12-28T06:36:41.680Z,99771.72
2022-12-28T06:39:13.524Z,99764.81
2022-12-28T06:41:42.534Z,99757.94
2022-12-28T06:44:12.499Z,99754.38
2022-12-28T06:46:41.194Z,99743.91
2022-12-28T06:49:09.514Z,99747.44
2022-12-28T06:51:42.283Z,99750.88
2022-12-28T06:54:12.861Z,99736.09
2022-12-28T06:56:41.474Z,99727.44
2022-12-28T06:59:10.136Z,99729.28
2022-12-28T07:01:40.150Z,99721.44
2022-12-28T07:04:10.358Z,99721.47
2022-12-28T07:06:42.664Z,99717.13
2022-12-28T07:09:15.662Z,99712.72
2022-12-28T07:11:44.306Z,99719.75
2022-12-28T07:14:12.976Z,99707.66
2022-12-28T07:19:08.757Z,99711.00
2022-12-28T07:21:39.123Z,99709.25
2022-12-28T07:24:08.347Z,99698.88
2022-12-28T07:26:39.290Z,99702.34
2022-12-28T07:29:09.916Z,99700.63
2022-12-28T07:31:45.383Z,99692.84
2022-12-28T07:34:14.574Z,99685.03
2022-12-28T07:36:42.896Z,99671.16
2022-12-28T07:39:11.152Z,99672.88
2022-12-28T07:41:41.139Z,99667.69
2022-12-28T07:44:09.416Z,99671.19
2022-12-28T07:46:41.584Z,99669.50
2022-12-28T07:49:10.129Z,99655.66
2022-12-28T07:51:39.793Z,99660.78
2022-12-28T07:54:08.789Z,99652.16
2022-12-28T07:59:07.422Z,99633.00
2022-12-28T08:01:38.174Z,99641.81
2022-12-28T08:04:08.110Z,99627.97
2022-12-28T08:06:38.926Z,99629.75
2022-12-28T08:09:08.712Z,99619.28
2022-12-28T08:11:38.793Z,99621.88
2022-12-28T08:14:09.520Z,99615.81
2022-12-28T08:16:40.265Z,99610.63
2022-12-28T08:19:08.995Z,99598.50
2022-12-28T08:21:38.998Z,99602.91
2022-12-28T08:24:08.620Z,99603.75
2022-12-28T08:26:38.893Z,99596.78
2022-12-28T08:29:11.703Z,99590.69
2022-12-28T08:31:42.287Z,99600.25
2022-12-28T08:34:13.709Z,99598.50
2022-12-28T08:36:42.172Z,99596.75
2022-12-28T08:39:10.909Z,99598.50
2022-12-28T08:41:39.880Z,99580.28
2022-12-28T08:44:09.741Z,99581.19
2022-12-28T08:46:38.254Z,99582.06
2022-12-28T08:49:06.991Z,99582.91
2022-12-28T08:51:36.988Z,99570.78
2022-12-28T08:54:05.554Z,99573.41
2022-12-28T08:56:35.245Z,99565.56
2022-12-28T08:59:03.829Z,99564.69
2022-12-28T09:01:42.525Z,99561.22
2022-12-28T09:04:14.442Z,99556.91
2022-12-28T09:06:42.920Z,99560.34
2022-12-28T09:09:14.095Z,99546.50
2022-12-28T09:11:44.333Z,99553.47
2022-12-28T09:14:22.062Z,99551.78
2022-12-28T09:16:53.674Z,99551.78
2022-12-28T09:19:22.978Z,99541.38
2022-12-28T09:21:53.443Z,99534.44
2022-12-28T09:24:22.932Z,99524.06
2022-12-28T09:26:53.069Z,99525.81
2022-12-28T09:29:21.747Z,99505.00
2022-12-28T09:31:50.086Z,99519.72
2022-12-28T09:34:37.383Z,99502.38
2022-12-28T09:37:06.567Z,99490.22
2022-12-28T09:39:41.816Z,99501.53
2022-12-28T09:42:17.413Z,99498.06
2022-12-28T09:44:56.248Z,99496.34
2022-12-28T09:47:35.040Z,99473.78
2022-12-28T09:50:25.999Z,99491.09
2022-12-28T09:53:04.976Z,99483.31
2022-12-28T09:55:34.937Z,99464.25
2022-12-28T09:58:05.653Z,99466.88
2022-12-28T10:00:40.044Z,99476.41
2022-12-28T10:03:16.155Z,99468.63
2022-12-28T10:05:46.792Z,99433.94
2022-12-28T10:08:18.722Z,99449.56
2022-12-28T10:10:49.285Z,99456.50
2022-12-28T10:13:58.641Z,99458.22
2022-12-28T10:16:22.303Z,99463.44
2022-12-28T10:18:52.146Z,99452.16
2022-12-28T10:21:31.993Z,99451.31
2022-12-28T10:27:02.073Z,99443.50
2022-12-28T10:29:33.963Z,99440.88
2022-12-28T10:32:05.488Z,99436.53
2022-12-28T10:34:39.133Z,99430.50
2022-12-28T10:37:23.654Z,99413.16
2022-12-28T10:39:56.739Z,99408.84
2022-12-28T10:42:28.976Z,99397.53
2022-12-28T10:45:03.798Z,99411.41
2022-12-28T10:47:36.148Z,99409.72
2022-12-28T10:50:47.269Z,99403.63
2022-12-28T10:53:31.705Z,99401.03
2022-12-28T10:56:19.926Z,99388.94
2022-12-28T10:58:52.008Z,99397.59
2022-12-28T11:01:29.583Z,99394.09
2022-12-28T11:04:08.368Z,99394.13
2022-12-28T11:06:53.586Z,99371.56
2022-12-28T11:09:36.832Z,99390.63
2022-12-28T11:12:19.387Z,99382.84
2022-12-28T11:14:48.169Z,99388.94
2022-12-28T11:17:23.504Z,99384.59
2022-12-28T11:19:56.413Z,99366.38
2022-12-28T11:22:27.233Z,99362.91
2022-12-28T11:25:01.541Z,99375.06
2022-12-28T11:27:31.037Z,99331.69
2022-12-28T11:29:59.741Z,99373.31
2022-12-28T11:32:40.855Z,99349.00
2022-12-28T11:35:16.819Z,99359.41
2022-12-28T11:37:51.140Z,99336.88
2022-12-28T11:40:49.388Z,99354.22
2022-12-28T11:43:57.671Z,99338.59
2022-12-28T11:46:40.808Z,99342.06
2022-12-28T11:49:39.403Z,99314.31
2022-12-28T11:52:44.277Z,99332.50
2022-12-28T11:55:38.441Z,99319.50
2022-12-28T11:58:37.196Z,99328.16
2022-12-28T12:01:05.908Z,99324.66
2022-12-28T12:04:18.226Z,99320.31
2022-12-28T12:07:31.649Z,99321.19
2022-12-28T12:10:30.703Z,99307.28
2022-12-28T12:13:00.504Z,99310.75
2022-12-28T12:15:35.810Z,99315.06
2022-12-28T12:18:07.322Z,99321.13
2022-12-28T12:20:53.653Z,99305.53
2022-12-28T12:23:29.832Z,99321.13
2022-12-28T12:26:02.164Z,99310.69
2022-12-28T12:28:39.604Z,99323.69
2022-12-28T12:31:15.246Z,99317.63
2022-12-28T12:33:47.903Z,99319.31
2022-12-28T12:36:30.699Z,99320.19
2022-12-28T12:39:21.415Z,99314.09
2022-12-28T12:42:02.099Z,99317.56
2022-12-28T12:44:40.907Z,99308.00
2022-12-28T12:47:35.742Z,99301.97
2022-12-28T12:50:32.709Z,99310.59
2022-12-28T12:53:07.991Z,99300.16
2022-12-28T12:55:56.334Z,99303.59
2022-12-28T12:58:29.671Z,99305.34
2022-12-28T13:01:17.150Z,99307.91
2022-12-28T13:03:47.874Z,99302.72
2022-12-28T13:06:21.359Z,99307.94
2022-12-28T13:08:53.956Z,99303.53
2022-12-28T13:11:24.099Z,99287.97
2022-12-28T13:13:55.147Z,99293.09
2022-12-28T13:16:27.243Z,99301.84
2022-12-28T13:18:57.684Z,99304.41
2022-12-28T13:21:30.012Z,99301.78
2022-12-28T13:23:58.747Z,99300.00
2022-12-28T13:26:29.915Z,99305.28
2022-12-28T13:29:00.903Z,99301.75
2022-12-28T13:31:35.335Z,99295.69
2022-12-28T13:34:05.844Z,99290.41
2022-12-28T13:36:35.553Z,99293.88
2022-12-28T13:39:06.649Z,99291.25
2022-12-28T13:41:37.375Z,99291.25
2022-12-28T13:44:44.138Z,99298.22
2022-12-28T13:47:20.289Z,99298.09
2022-12-28T13:49:56.370Z,99291.16
2022-12-28T13:52:31.840Z,99297.16
2022-12-28T13:55:03.671Z,99304.09
2022-12-28T13:57:55.661Z,99294.56
2022-12-28T14:00:24.391Z,99285.13
2022-12-28T14:02:56.496Z,99298.19
2022-12-28T14:05:27.523Z,99315.47
2022-12-28T14:07:59.609Z,99303.34
2022-12-28T14:10:29.304Z,99303.34
2022-12-28T14:12:58.653Z,99327.66
2022-12-28T14:15:27.253Z,99306.78
2022-12-28T14:17:56.192Z,99324.13
2022-12-28T14:20:24.617Z,99318.97
2022-12-28T14:22:52.926Z,99319.84
2022-12-28T14:25:24.097Z,99335.47
2022-12-28T14:27:58.718Z,99332.88
2022-12-28T14:30:30.349Z,99343.28
2022-12-28T14:33:05.937Z,99358.94
2022-12-28T14:35:38.224Z,99350.22
2022-12-28T14:38:06.747Z,99355.47
2022-12-28T14:40:36.839Z,99344.25
2022-12-28T14:43:11.888Z,99352.13
2022-12-28T14:48:37.556Z,99362.56
2022-12-28T14:51:24.386Z,99369.47
2022-12-28T14:54:16.616Z,99378.19
2022-12-28T14:56:50.251Z,99381.59
2022-12-28T14:59:23.993Z,99384.19
2022-12-28T15:00:25.491Z,99361.66
2022-12-28T15:01:52.714Z,99389.38
2022-12-28T15:04:30.243Z,99378.97
2022-12-28T15:06:58.986Z,99391.91
2022-12-28T15:09:27.856Z,99395.38
2022-12-28T15:12:17.841Z,99376.28
2022-12-28T15:14:47.125Z,99386.53
2022-12-28T15:17:17.613Z,99388.91
2022-12-28T15:19:47.066Z,99380.91
2022-12-28T15:22:16.353Z,99356.53
2022-12-28T15:24:49.192Z,99378.91
2022-12-28T15:27:19.308Z,99371.81
2022-12-28T15:30:05.080Z,99349.19
2022-12-28T15:32:34.452Z,99363.00
2022-12-28T15:35:03.643Z,99368.13
2022-12-28T15:37:32.400Z,99372.47
2022-12-28T15:40:01.428Z,99373.38
2022-12-28T15:42:35.061Z,99368.97
2022-12-28T15:45:10.680Z,99381.94
2022-12-28T15:47:39.221Z,99384.47
2022-12-28T15:50:08.665Z,99383.56
2022-12-28T15:52:37.230Z,99390.56
2022-12-28T15:55:07.065Z,99387.03
2022-12-28T15:57:37.191Z,99385.28
2022-12-28T16:00:06.869Z,99383.56
2022-12-28T16:02:35.619Z,99392.22
2022-12-28T16:05:04.285Z,99387.97
2022-12-28T16:07:33.099Z,99387.91
2022-12-28T16:10:01.931Z,99391.38
2022-12-28T16:12:30.692Z,99406.13
2022-12-28T16:15:01.344Z,99395.69
2022-12-28T16:17:29.868Z,99393.97
2022-12-28T16:19:58.535Z,99400.88
2022-12-28T16:22:27.124Z,99397.44
2022-12-28T16:24:55.311Z,99413.94
2022-12-28T16:27:23.913Z,99413.06
2022-12-28T16:29:58.448Z,99406.09
2022-12-28T16:32:29.151Z,99407.84
2022-12-28T16:34:57.773Z,99414.78
2022-12-28T16:37:29.164Z,99416.56
2022-12-28T16:39:57.279Z,99406.13
2022-12-28T16:42:25.557Z,99418.31
2022-12-28T16:44:53.656Z,99426.16
2022-12-28T16:47:22.482Z,99423.56
2022-12-28T16:49:52.128Z,99430.50
2022-12-28T16:52:20.271Z,99425.22
2022-12-28T16:54:48.784Z,99428.69
2022-12-28T16:57:17.187Z,99435.69
2022-12-28T16:59:49.856Z,99421.81
2022-12-28T17:02:22.670Z,99412.28
2022-12-28T17:04:53.506Z,99413.09
2022-12-28T17:07:25.684Z,99419.19
2022-12-28T17:09:55.363Z,99415.72
2022-12-28T17:12:25.711Z,99413.94
2022-12-28T17:14:54.696Z,99423.47
2022-12-28T17:17:24.311Z,99419.16
2022-12-28T17:19:55.499Z,99420.94
2022-12-28T17:22:25.235Z,99419.16
2022-12-28T17:24:54.946Z,99413.97
2022-12-28T17:27:24.450Z,99415.66
2022-12-28T17:29:54.737Z,99416.56
2022-12-28T17:32:24.885Z,99423.53
2022-12-28T17:34:55.252Z,99417.41
2022-12-28T17:37:23.420Z,99416.56
2022-12-28T17:39:51.779Z,99425.34
2022-12-28T17:42:19.890Z,99421.84
2022-12-28T17:44:48.929Z,99413.16
2022-12-28T17:47:20.345Z,99417.50
2022-12-28T17:49:48.449Z,99414.88
2022-12-28T17:52:21.831Z,99426.25
2022-12-28T17:54:50.398Z,99418.38
2022-12-28T17:57:19.120Z,99421.94
2022-12-28T17:59:47.798Z,99411.47
2022-12-28T18:02:16.263Z,99418.41
2022-12-28T18:04:44.819Z,99407.97
2022-12-28T18:07:13.088Z,99402.69
2022-12-28T18:09:42.916Z,99401.00
2022-12-28T18:12:11.056Z,99404.44
2022-12-28T18:14:40.209Z,99401.78
2022-12-28T18:17:12.946Z,99393.97
2022-12-28T18:19:41.370Z,99400.03
2022-12-28T18:22:10.236Z,99397.44
2022-12-28T18:24:38.833Z,99393.97
2022-12-28T18:27:08.597Z,99397.44
2022-12-28T18:29:37.001Z,99400.03
2022-12-28T18:32:05.379Z,99391.34
2022-12-28T18:34:33.559Z,99398.31
2022-12-28T18:37:02.739Z,99403.59
2022-12-28T18:39:31.166Z,99399.25
2022-12-28T18:41:59.401Z,99405.34
2022-12-28T18:44:29.281Z,99393.13
2022-12-28T18:46:57.704Z,99391.34
2022-12-28T18:49:26.220Z,99395.66
2022-12-28T18:51:55.409Z,99384.34
2022-12-28T18:54:23.914Z,99368.84
2022-12-28T18:56:55.081Z,99391.38
2022-12-28T18:59:24.751Z,99392.25
2022-12-28T19:02:15.880Z,99358.50
2022-12-28T19:04:43.923Z,99388.75
2022-12-28T19:07:12.372Z,99376.63
2022-12-28T19:10:02.779Z,99391.41
2022-12-28T19:12:34.892Z,99390.53
2022-12-28T19:15:03.163Z,99393.94
2022-12-28T19:17:32.787Z,99368.72
2022-12-28T19:20:01.079Z,99378.19
2022-12-28T19:22:30.703Z,99378.19
2022-12-28T19:24:58.951Z,99375.59
2022-12-28T19:27:27.308Z,99385.16
2022-12-28T19:29:55.461Z,99380.06
2022-12-28T19:32:23.782Z,99376.47
2022-12-28T19:34:54.120Z,99378.25
2022-12-28T19:37:22.571Z,99385.22
2022-12-28T19:39:56.211Z,99380.06
2022-12-28T19:42:26.336Z,99393.13
2022-12-28T19:44:54.793Z,99378.38
2022-12-28T19:47:23.027Z,99378.44
2022-12-28T19:49:52.930Z,99380.19
2022-12-28T19:52:21.085Z,99388.97
2022-12-28T19:54:49.537Z,99378.50
2022-12-28T19:57:18.191Z,99367.19
2022-12-28T19:59:46.666Z,99365.44
2022-12-28T20:02:15.079Z,99368.06
2022-12-28T20:04:45.879Z,99365.47
2022-12-28T20:07:16.104Z,99366.34
2022-12-28T20:09:44.337Z,99357.56
2022-12-28T20:12:12.955Z,99357.59
2022-12-28T20:14:41.383Z,99354.03
2022-12-28T20:17:12.021Z,99354.00
2022-12-28T20:19:40.570Z,99359.19
2022-12-28T20:22:08.756Z,99348.72
2022-12-28T20:24:38.525Z,99348.69
2022-12-28T20:27:06.997Z,99352.13
2022-12-28T20:29:35.294Z,99345.16
2022-12-28T20:32:04.045Z,99342.56
2022-12-28T20:34:34.929Z,99342.47
2022-12-28T20:37:03.113Z,99334.63
2022-12-28T20:39:31.450Z,99339.72
2022-12-28T20:42:18.955Z,99321.53
2022-12-28T20:44:47.514Z,99337.06
2022-12-28T20:47:15.741Z,99335.38
2022-12-28T20:49:43.872Z,99330.94
2022-12-28T20:52:12.345Z,99332.69
2022-12-28T20:54:40.668Z,99335.31
2022-12-28T20:57:10.542Z,99327.50
2022-12-28T20:59:38.783Z,99334.44
2022-12-28T21:02:06.936Z,99334.44
2022-12-28T21:04:35.237Z,99323.97
2022-12-28T21:07:04.935Z,99329.13
2022-12-28T21:09:33.278Z,99334.31
2022-12-28T21:12:01.453Z,99326.47
2022-12-28T21:14:30.963Z,99329.09
2022-12-28T21:16:59.409Z,99319.47
2022-12-28T21:19:27.540Z,99315.13
2022-12-28T21:21:55.766Z,99319.41
2022-12-28T21:24:24.053Z,99313.31
2022-12-28T21:26:52.227Z,99315.81
2022-12-28T21:29:25.777Z,99313.22
2022-12-28T21:31:56.277Z,99308.03
2022-12-28T21:34:27.870Z,99305.44
2022-12-28T21:36:56.677Z,99301.03
2022-12-28T21:39:24.863Z,99297.47
2022-12-28T21:41:53.117Z,99297.47
2022-12-28T21:44:22.999Z,99285.38
2022-12-28T21:46:52.683Z,99293.97
2022-12-28T21:49:22.642Z,99287.03
2022-12-28T21:51:51.716Z,99295.63
2022-12-28T21:54:22.058Z,99285.22
2022-12-28T21:56:52.119Z,99274.03
2022-12-28T21:59:20.295Z,99280.91
2022-12-28T22:02:02.605Z,99279.97
2022-12-28T22:04:50.111Z,99276.53
2022-12-28T22:07:22.660Z,99273.06
2022-12-28T22:10:08.219Z,99264.34
2022-12-28T22:12:37.254Z,99259.13
2022-12-28T22:15:28.168Z,99262.56
2022-12-28T22:17:57.243Z,99234.81
2022-12-28T22:20:28.163Z,99252.16
2022-12-28T22:22:57.492Z,99241.69
2022-12-28T22:25:27.101Z,99233.06
2022-12-28T22:27:55.287Z,99228.63
2022-12-28T22:30:23.565Z,99229.47
2022-12-28T22:32:51.982Z,99224.31
2022-12-28T22:35:20.569Z,99222.56
2022-12-28T22:37:50.533Z,99212.19
2022-12-28T22:40:19.176Z,99202.63
2022-12-28T22:42:49.320Z,99205.22
2022-12-28T22:45:19.459Z,99193.00
2022-12-28T22:47:48.539Z,99194.66
2022-12-28T22:50:19.147Z,99180.88
2022-12-28T22:52:47.902Z,99189.69
2022-12-28T22:55:17.856Z,99179.28
2022-12-28T22:57:49.036Z,99177.47
2022-12-28T23:00:17.639Z,99168.72
2022-12-28T23:02:47.014Z,99167.91
2022-12-28T23:05:15.620Z,99171.38
2022-12-28T23:07:43.898Z,99162.69
2022-12-28T23:10:12.308Z,99152.28
2022-12-28T23:12:41.813Z,99144.53
2022-12-28T23:15:19.193Z,99142.75
2022-12-28T23:17:50.387Z,99133.25
2022-12-28T23:20:36.374Z,99128.91
2022-12-28T23:23:22.146Z,99125.28
2022-12-28T23:26:08.257Z,99114.81
2022-12-28T23:28:37.801Z,99104.53
2022-12-28T23:31:06.427Z,99104.53
2022-12-28T23:33:34.609Z,99107.97
2022-12-28T23:36:03.976Z,99090.66
2022-12-28T23:38:32.908Z,99087.09
2022-12-28T23:41:23.018Z,99080.16
2022-12-28T23:43:52.886Z,99060.16
2022-12-28T23:46:21.206Z,99064.53
2022-12-28T23:48:49.537Z,99057.63
2022-12-28T23:51:20.781Z,99054.09
2022-12-28T23:53:48.912Z,99060.25
2022-12-28T23:56:17.048Z,99042.91
2022-12-28T23:58:45.625Z,99050.63
